sensor_id;sensor_type;location;lat;lon;timestamp;P1;durP1;ratioP1;P2;durP2;ratioP2
75928;SDS011;64606;44.062;2.986;2024-03-08T00:00:34;1.48;;;1.20;;
75928;SDS011;64606;44.062;2.986;2024-03-08T00:03:00;2.25;;;1.13;;
75928;SDS011;64606;44.062;2.986;2024-03-08T00:05:27;2.15;;;1.30;;
75928;SDS011;64606;44.062;2.986;2024-03-08T00:07:53;1.75;;;1.00;;
75928;SDS011;64606;44.062;2.986;2024-03-08T00:10:19;3.13;;;1.08;;
75928;SDS011;64606;44.062;2.986;2024-03-08T00:12:46;1.20;;;1.10;;
75928;SDS011;64606;44.062;2.986;2024-03-08T00:15:13;1.42;;;1.10;;
75928;SDS011;64606;44.062;2.986;2024-03-08T00:17:40;1.73;;;1.00;;
75928;SDS011;64606;44.062;2.986;2024-03-08T00:20:06;1.33;;;1.00;;
75928;SDS011;64606;44.062;2.986;2024-03-08T00:22:36;1.17;;;0.90;;
75928;SDS011;64606;44.062;2.986;2024-03-08T00:25:03;1.80;;;1.08;;
75928;SDS011;64606;44.062;2.986;2024-03-08T00:27:29;1.48;;;1.02;;
75928;SDS011;64606;44.062;2.986;2024-03-08T00:29:58;1.00;;;0.70;;
75928;SDS011;64606;44.062;2.986;2024-03-08T00:32:25;1.90;;;1.08;;
75928;SDS011;64606;44.062;2.986;2024-03-08T00:34:53;1.55;;;1.00;;
75928;SDS011;64606;44.062;2.986;2024-03-08T00:37:22;1.33;;;0.98;;
75928;SDS011;64606;44.062;2.986;2024-03-08T00:39:51;1.50;;;1.00;;
75928;SDS011;64606;44.062;2.986;2024-03-08T00:42:18;1.90;;;1.10;;
75928;SDS011;64606;44.062;2.986;2024-03-08T00:44:44;1.10;;;0.88;;
75928;SDS011;64606;44.062;2.986;2024-03-08T00:47:10;1.10;;;0.90;;
75928;SDS011;64606;44.062;2.986;2024-03-08T00:49:36;1.10;;;0.95;;
75928;SDS011;64606;44.062;2.986;2024-03-08T00:52:03;2.33;;;1.10;;
75928;SDS011;64606;44.062;2.986;2024-03-08T00:54:32;1.23;;;0.90;;
75928;SDS011;64606;44.062;2.986;2024-03-08T00:56:58;2.75;;;1.00;;
75928;SDS011;64606;44.062;2.986;2024-03-08T00:59:28;2.33;;;0.93;;
75928;SDS011;64606;44.062;2.986;2024-03-08T01:01:54;1.38;;;0.90;;
75928;SDS011;64606;44.062;2.986;2024-03-08T01:04:20;1.42;;;1.10;;
75928;SDS011;64606;44.062;2.986;2024-03-08T01:06:48;1.02;;;0.80;;
75928;SDS011;64606;44.062;2.986;2024-03-08T01:09:14;1.40;;;0.90;;
75928;SDS011;64606;44.062;2.986;2024-03-08T01:11:42;2.20;;;1.02;;
75928;SDS011;64606;44.062;2.986;2024-03-08T01:14:09;1.20;;;0.70;;
75928;SDS011;64606;44.062;2.986;2024-03-08T01:16:35;1.77;;;0.90;;
75928;SDS011;64606;44.062;2.986;2024-03-08T01:19:01;2.05;;;0.95;;
75928;SDS011;64606;44.062;2.986;2024-03-08T01:21:28;1.40;;;0.90;;
75928;SDS011;64606;44.062;2.986;2024-03-08T01:23:55;1.27;;;0.80;;
75928;SDS011;64606;44.062;2.986;2024-03-08T01:26:21;1.63;;;1.00;;
75928;SDS011;64606;44.062;2.986;2024-03-08T01:28:47;1.95;;;1.10;;
75928;SDS011;64606;44.062;2.986;2024-03-08T01:31:13;1.27;;;0.82;;
75928;SDS011;64606;44.062;2.986;2024-03-08T01:33:39;1.75;;;0.80;;
75928;SDS011;64606;44.062;2.986;2024-03-08T01:36:05;1.77;;;0.75;;
75928;SDS011;64606;44.062;2.986;2024-03-08T01:38:31;1.45;;;1.00;;
75928;SDS011;64606;44.062;2.986;2024-03-08T01:40:58;2.22;;;1.00;;
75928;SDS011;64606;44.062;2.986;2024-03-08T01:43:25;1.58;;;0.95;;
75928;SDS011;64606;44.062;2.986;2024-03-08T01:45:53;1.55;;;0.80;;
75928;SDS011;64606;44.062;2.986;2024-03-08T01:48:20;0.98;;;0.68;;
75928;SDS011;64606;44.062;2.986;2024-03-08T01:50:50;0.73;;;0.68;;
75928;SDS011;64606;44.062;2.986;2024-03-08T01:53:17;1.23;;;0.70;;
75928;SDS011;64606;44.062;2.986;2024-03-08T01:55:47;0.80;;;0.73;;
75928;SDS011;64606;44.062;2.986;2024-03-08T01:58:14;1.50;;;0.80;;
75928;SDS011;64606;44.062;2.986;2024-03-08T02:00:44;0.90;;;0.65;;
75928;SDS011;64606;44.062;2.986;2024-03-08T02:03:10;1.05;;;0.70;;
75928;SDS011;64606;44.062;2.986;2024-03-08T02:05:37;1.77;;;0.90;;
75928;SDS011;64606;44.062;2.986;2024-03-08T02:08:05;1.83;;;0.80;;
75928;SDS011;64606;44.062;2.986;2024-03-08T02:10:43;1.33;;;0.68;;
75928;SDS011;64606;44.062;2.986;2024-03-08T02:13:10;1.70;;;0.70;;
75928;SDS011;64606;44.062;2.986;2024-03-08T02:18:22;2.03;;;0.93;;
75928;SDS011;64606;44.062;2.986;2024-03-08T02:20:54;0.85;;;0.68;;
75928;SDS011;64606;44.062;2.986;2024-03-08T02:23:21;2.00;;;0.90;;
75928;SDS011;64606;44.062;2.986;2024-03-08T02:25:48;1.30;;;0.80;;
75928;SDS011;64606;44.062;2.986;2024-03-08T02:28:14;0.60;;;0.60;;
75928;SDS011;64606;44.062;2.986;2024-03-08T02:30:41;2.47;;;0.90;;
75928;SDS011;64606;44.062;2.986;2024-03-08T02:33:07;1.38;;;0.90;;
75928;SDS011;64606;44.062;2.986;2024-03-08T02:35:36;1.33;;;0.70;;
75928;SDS011;64606;44.062;2.986;2024-03-08T02:38:03;1.30;;;0.80;;
75928;SDS011;64606;44.062;2.986;2024-03-08T02:40:29;1.40;;;0.60;;
75928;SDS011;64606;44.062;2.986;2024-03-08T02:42:57;1.52;;;0.80;;
75928;SDS011;64606;44.062;2.986;2024-03-08T02:45:23;0.93;;;0.70;;
75928;SDS011;64606;44.062;2.986;2024-03-08T02:47:49;2.17;;;0.80;;
75928;SDS011;64606;44.062;2.986;2024-03-08T02:50:15;1.73;;;0.90;;
75928;SDS011;64606;44.062;2.986;2024-03-08T02:52:42;0.93;;;0.60;;
75928;SDS011;64606;44.062;2.986;2024-03-08T02:55:09;1.80;;;0.60;;
75928;SDS011;64606;44.062;2.986;2024-03-08T02:57:36;2.47;;;0.70;;
75928;SDS011;64606;44.062;2.986;2024-03-08T03:00:02;0.75;;;0.60;;
75928;SDS011;64606;44.062;2.986;2024-03-08T03:02:34;1.75;;;0.60;;
75928;SDS011;64606;44.062;2.986;2024-03-08T03:05:00;1.55;;;0.77;;
75928;SDS011;64606;44.062;2.986;2024-03-08T03:07:30;1.10;;;0.70;;
75928;SDS011;64606;44.062;2.986;2024-03-08T03:09:58;1.40;;;0.70;;
75928;SDS011;64606;44.062;2.986;2024-03-08T03:12:25;0.95;;;0.65;;
75928;SDS011;64606;44.062;2.986;2024-03-08T03:14:51;1.80;;;0.82;;
75928;SDS011;64606;44.062;2.986;2024-03-08T03:17:17;2.08;;;0.90;;
75928;SDS011;64606;44.062;2.986;2024-03-08T03:19:45;1.70;;;0.80;;
75928;SDS011;64606;44.062;2.986;2024-03-08T03:22:12;0.60;;;0.50;;
75928;SDS011;64606;44.062;2.986;2024-03-08T03:24:38;0.95;;;0.70;;
75928;SDS011;64606;44.062;2.986;2024-03-08T03:27:04;1.33;;;0.70;;
75928;SDS011;64606;44.062;2.986;2024-03-08T03:29:44;1.50;;;0.80;;
75928;SDS011;64606;44.062;2.986;2024-03-08T03:32:14;0.85;;;0.63;;
75928;SDS011;64606;44.062;2.986;2024-03-08T03:34:40;0.70;;;0.60;;
75928;SDS011;64606;44.062;2.986;2024-03-08T03:37:09;1.10;;;0.70;;
75928;SDS011;64606;44.062;2.986;2024-03-08T03:39:37;1.25;;;0.82;;
75928;SDS011;64606;44.062;2.986;2024-03-08T03:42:18;1.17;;;0.70;;
75928;SDS011;64606;44.062;2.986;2024-03-08T03:44:48;1.42;;;0.70;;
75928;SDS011;64606;44.062;2.986;2024-03-08T03:47:15;1.65;;;0.80;;
75928;SDS011;64606;44.062;2.986;2024-03-08T03:49:41;1.02;;;0.65;;
75928;SDS011;64606;44.062;2.986;2024-03-08T03:52:08;0.77;;;0.60;;
75928;SDS011;64606;44.062;2.986;2024-03-08T03:54:34;1.02;;;0.70;;
75928;SDS011;64606;44.062;2.986;2024-03-08T03:57:00;2.22;;;1.00;;
75928;SDS011;64606;44.062;2.986;2024-03-08T03:59:27;0.60;;;0.57;;
75928;SDS011;64606;44.062;2.986;2024-03-08T04:01:54;0.75;;;0.50;;
75928;SDS011;64606;44.062;2.986;2024-03-08T04:04:20;1.15;;;0.55;;
75928;SDS011;64606;44.062;2.986;2024-03-08T04:06:46;0.75;;;0.57;;
75928;SDS011;64606;44.062;2.986;2024-03-08T04:09:13;1.80;;;0.63;;
75928;SDS011;64606;44.062;2.986;2024-03-08T04:11:39;1.40;;;0.80;;
75928;SDS011;64606;44.062;2.986;2024-03-08T04:14:05;0.63;;;0.50;;
75928;SDS011;64606;44.062;2.986;2024-03-08T04:16:31;1.00;;;0.60;;
75928;SDS011;64606;44.062;2.986;2024-03-08T04:18:58;0.95;;;0.60;;
75928;SDS011;64606;44.062;2.986;2024-03-08T04:21:24;0.77;;;0.50;;
75928;SDS011;64606;44.062;2.986;2024-03-08T04:23:50;1.45;;;0.70;;
75928;SDS011;64606;44.062;2.986;2024-03-08T04:26:16;0.50;;;0.50;;
75928;SDS011;64606;44.062;2.986;2024-03-08T04:28:43;1.20;;;0.63;;
75928;SDS011;64606;44.062;2.986;2024-03-08T04:31:09;3.00;;;0.75;;
75928;SDS011;64606;44.062;2.986;2024-03-08T04:33:35;1.33;;;0.80;;
75928;SDS011;64606;44.062;2.986;2024-03-08T04:36:01;0.88;;;0.60;;
75928;SDS011;64606;44.062;2.986;2024-03-08T04:38:30;1.80;;;0.73;;
75928;SDS011;64606;44.062;2.986;2024-03-08T04:40:57;1.17;;;0.60;;
75928;SDS011;64606;44.062;2.986;2024-03-08T04:43:24;1.10;;;0.60;;
75928;SDS011;64606;44.062;2.986;2024-03-08T04:45:55;1.65;;;0.80;;
75928;SDS011;64606;44.062;2.986;2024-03-08T04:48:21;1.77;;;0.50;;
75928;SDS011;64606;44.062;2.986;2024-03-08T04:50:47;1.25;;;0.60;;
75928;SDS011;64606;44.062;2.986;2024-03-08T04:53:14;1.55;;;0.77;;
75928;SDS011;64606;44.062;2.986;2024-03-08T04:55:40;1.20;;;0.52;;
75928;SDS011;64606;44.062;2.986;2024-03-08T04:58:06;1.40;;;0.60;;
75928;SDS011;64606;44.062;2.986;2024-03-08T05:00:32;0.93;;;0.60;;
75928;SDS011;64606;44.062;2.986;2024-03-08T05:02:59;0.45;;;0.32;;
75928;SDS011;64606;44.062;2.986;2024-03-08T05:05:25;2.67;;;0.70;;
75928;SDS011;64606;44.062;2.986;2024-03-08T05:07:53;0.70;;;0.40;;
75928;SDS011;64606;44.062;2.986;2024-03-08T05:10:19;1.10;;;0.60;;
75928;SDS011;64606;44.062;2.986;2024-03-08T05:12:46;0.55;;;0.50;;
75928;SDS011;64606;44.062;2.986;2024-03-08T05:15:12;1.15;;;0.55;;
75928;SDS011;64606;44.062;2.986;2024-03-08T05:17:38;0.85;;;0.70;;
75928;SDS011;64606;44.062;2.986;2024-03-08T05:20:05;1.13;;;0.50;;
75928;SDS011;64606;44.062;2.986;2024-03-08T05:22:37;0.43;;;0.32;;
75928;SDS011;64606;44.062;2.986;2024-03-08T05:25:03;0.73;;;0.47;;
75928;SDS011;64606;44.062;2.986;2024-03-08T05:27:30;2.45;;;0.50;;
75928;SDS011;64606;44.062;2.986;2024-03-08T05:29:56;1.75;;;0.52;;
75928;SDS011;64606;44.062;2.986;2024-03-08T05:32:22;1.05;;;0.50;;
75928;SDS011;64606;44.062;2.986;2024-03-08T05:34:50;0.90;;;0.50;;
75928;SDS011;64606;44.062;2.986;2024-03-08T05:37:16;0.75;;;0.50;;
75928;SDS011;64606;44.062;2.986;2024-03-08T05:39:42;0.57;;;0.40;;
75928;SDS011;64606;44.062;2.986;2024-03-08T05:42:09;1.27;;;0.55;;
75928;SDS011;64606;44.062;2.986;2024-03-08T05:44:35;1.15;;;0.60;;
75928;SDS011;64606;44.062;2.986;2024-03-08T05:47:01;0.73;;;0.63;;
75928;SDS011;64606;44.062;2.986;2024-03-08T05:49:28;1.23;;;0.60;;
75928;SDS011;64606;44.062;2.986;2024-03-08T05:51:54;1.77;;;0.60;;
75928;SDS011;64606;44.062;2.986;2024-03-08T05:54:20;0.98;;;0.70;;
75928;SDS011;64606;44.062;2.986;2024-03-08T05:56:49;1.25;;;0.63;;
75928;SDS011;64606;44.062;2.986;2024-03-08T05:59:18;1.52;;;0.60;;
75928;SDS011;64606;44.062;2.986;2024-03-08T06:01:44;1.20;;;0.60;;
75928;SDS011;64606;44.062;2.986;2024-03-08T06:04:11;0.75;;;0.60;;
75928;SDS011;64606;44.062;2.986;2024-03-08T06:06:37;1.23;;;0.93;;
75928;SDS011;64606;44.062;2.986;2024-03-08T06:09:03;0.90;;;0.65;;
75928;SDS011;64606;44.062;2.986;2024-03-08T06:11:36;0.95;;;0.63;;
75928;SDS011;64606;44.062;2.986;2024-03-08T06:14:03;2.42;;;0.60;;
75928;SDS011;64606;44.062;2.986;2024-03-08T06:16:29;1.92;;;0.50;;
75928;SDS011;64606;44.062;2.986;2024-03-08T06:18:56;1.02;;;0.50;;
75928;SDS011;64606;44.062;2.986;2024-03-08T06:21:22;1.30;;;0.60;;
75928;SDS011;64606;44.062;2.986;2024-03-08T06:23:52;1.05;;;0.70;;
75928;SDS011;64606;44.062;2.986;2024-03-08T06:26:20;1.45;;;0.70;;
75928;SDS011;64606;44.062;2.986;2024-03-08T06:28:47;1.33;;;0.70;;
75928;SDS011;64606;44.062;2.986;2024-03-08T06:31:13;0.90;;;0.60;;
75928;SDS011;64606;44.062;2.986;2024-03-08T06:33:40;1.13;;;0.63;;
75928;SDS011;64606;44.062;2.986;2024-03-08T06:36:06;1.65;;;0.75;;
75928;SDS011;64606;44.062;2.986;2024-03-08T06:38:32;2.50;;;0.63;;
75928;SDS011;64606;44.062;2.986;2024-03-08T06:40:58;0.77;;;0.68;;
75928;SDS011;64606;44.062;2.986;2024-03-08T06:43:26;1.95;;;0.73;;
75928;SDS011;64606;44.062;2.986;2024-03-08T06:45:59;1.95;;;0.80;;
75928;SDS011;64606;44.062;2.986;2024-03-08T06:48:25;0.68;;;0.55;;
75928;SDS011;64606;44.062;2.986;2024-03-08T06:50:51;2.10;;;0.77;;
75928;SDS011;64606;44.062;2.986;2024-03-08T06:53:17;1.02;;;0.50;;
75928;SDS011;64606;44.062;2.986;2024-03-08T06:55:44;1.52;;;0.65;;
75928;SDS011;64606;44.062;2.986;2024-03-08T06:58:10;0.68;;;0.52;;
75928;SDS011;64606;44.062;2.986;2024-03-08T07:00:37;1.13;;;0.40;;
75928;SDS011;64606;44.062;2.986;2024-03-08T07:03:03;1.45;;;0.55;;
75928;SDS011;64606;44.062;2.986;2024-03-08T07:05:31;1.35;;;0.73;;
75928;SDS011;64606;44.062;2.986;2024-03-08T07:07:57;2.08;;;0.80;;
75928;SDS011;64606;44.062;2.986;2024-03-08T07:10:24;1.10;;;0.60;;
75928;SDS011;64606;44.062;2.986;2024-03-08T07:12:52;1.40;;;0.63;;
75928;SDS011;64606;44.062;2.986;2024-03-08T07:15:19;1.20;;;0.75;;
75928;SDS011;64606;44.062;2.986;2024-03-08T07:17:45;0.90;;;0.57;;
75928;SDS011;64606;44.062;2.986;2024-03-08T07:20:12;1.98;;;0.70;;
75928;SDS011;64606;44.062;2.986;2024-03-08T07:22:39;1.42;;;0.70;;
75928;SDS011;64606;44.062;2.986;2024-03-08T07:25:05;2.70;;;0.70;;
75928;SDS011;64606;44.062;2.986;2024-03-08T07:27:50;1.92;;;0.60;;
75928;SDS011;64606;44.062;2.986;2024-03-08T07:30:25;1.10;;;0.65;;
75928;SDS011;64606;44.062;2.986;2024-03-08T07:33:10;1.02;;;0.60;;
75928;SDS011;64606;44.062;2.986;2024-03-08T07:35:37;2.50;;;0.70;;
75928;SDS011;64606;44.062;2.986;2024-03-08T07:38:07;5.13;;;1.00;;
75928;SDS011;64606;44.062;2.986;2024-03-08T07:40:35;1.90;;;0.60;;
75928;SDS011;64606;44.062;2.986;2024-03-08T07:43:03;3.90;;;0.70;;
75928;SDS011;64606;44.062;2.986;2024-03-08T07:45:29;2.10;;;0.85;;
75928;SDS011;64606;44.062;2.986;2024-03-08T07:47:56;2.35;;;0.73;;
75928;SDS011;64606;44.062;2.986;2024-03-08T07:50:22;3.85;;;0.70;;
75928;SDS011;64606;44.062;2.986;2024-03-08T07:52:49;3.55;;;0.80;;
75928;SDS011;64606;44.062;2.986;2024-03-08T07:55:15;2.90;;;0.80;;
75928;SDS011;64606;44.062;2.986;2024-03-08T07:57:41;1.13;;;0.70;;
75928;SDS011;64606;44.062;2.986;2024-03-08T08:00:08;3.85;;;0.88;;
75928;SDS011;64606;44.062;2.986;2024-03-08T08:02:36;2.75;;;0.70;;
75928;SDS011;64606;44.062;2.986;2024-03-08T08:05:02;2.00;;;0.70;;
75928;SDS011;64606;44.062;2.986;2024-03-08T08:07:29;1.98;;;0.70;;
75928;SDS011;64606;44.062;2.986;2024-03-08T08:09:55;3.17;;;0.88;;
75928;SDS011;64606;44.062;2.986;2024-03-08T08:12:21;1.20;;;0.60;;
75928;SDS011;64606;44.062;2.986;2024-03-08T08:14:47;4.25;;;0.90;;
75928;SDS011;64606;44.062;2.986;2024-03-08T08:17:13;1.77;;;0.80;;
75928;SDS011;64606;44.062;2.986;2024-03-08T08:19:43;2.97;;;0.70;;
75928;SDS011;64606;44.062;2.986;2024-03-08T08:22:09;2.15;;;0.65;;
75928;SDS011;64606;44.062;2.986;2024-03-08T08:24:36;0.90;;;0.70;;
75928;SDS011;64606;44.062;2.986;2024-03-08T08:27:03;3.33;;;0.77;;
75928;SDS011;64606;44.062;2.986;2024-03-08T08:29:29;1.73;;;0.90;;
75928;SDS011;64606;44.062;2.986;2024-03-08T08:31:58;1.17;;;0.70;;
75928;SDS011;64606;44.062;2.986;2024-03-08T08:34:25;3.13;;;1.10;;
75928;SDS011;64606;44.062;2.986;2024-03-08T08:36:52;1.90;;;0.82;;
75928;SDS011;64606;44.062;2.986;2024-03-08T08:39:18;1.67;;;0.80;;
75928;SDS011;64606;44.062;2.986;2024-03-08T08:41:44;2.65;;;0.80;;
75928;SDS011;64606;44.062;2.986;2024-03-08T08:44:10;3.25;;;1.00;;
75928;SDS011;64606;44.062;2.986;2024-03-08T08:46:37;4.28;;;0.90;;
75928;SDS011;64606;44.062;2.986;2024-03-08T08:49:04;1.80;;;1.00;;
75928;SDS011;64606;44.062;2.986;2024-03-08T08:51:31;2.28;;;0.80;;
75928;SDS011;64606;44.062;2.986;2024-03-08T08:53:58;1.23;;;0.88;;
75928;SDS011;64606;44.062;2.986;2024-03-08T08:56:25;1.75;;;0.90;;
75928;SDS011;64606;44.062;2.986;2024-03-08T08:58:51;2.17;;;0.90;;
75928;SDS011;64606;44.062;2.986;2024-03-08T09:01:20;1.95;;;0.80;;
75928;SDS011;64606;44.062;2.986;2024-03-08T09:03:47;2.47;;;1.08;;
75928;SDS011;64606;44.062;2.986;2024-03-08T09:06:13;3.47;;;0.93;;
75928;SDS011;64606;44.062;2.986;2024-03-08T09:08:39;1.23;;;0.75;;
75928;SDS011;64606;44.062;2.986;2024-03-08T09:11:05;2.80;;;1.00;;
75928;SDS011;64606;44.062;2.986;2024-03-08T09:13:32;1.50;;;0.70;;
75928;SDS011;64606;44.062;2.986;2024-03-08T09:15:59;2.60;;;0.90;;
75928;SDS011;64606;44.062;2.986;2024-03-08T09:18:25;2.25;;;0.88;;
75928;SDS011;64606;44.062;2.986;2024-03-08T09:20:51;1.55;;;0.70;;
75928;SDS011;64606;44.062;2.986;2024-03-08T09:23:22;1.80;;;0.65;;
75928;SDS011;64606;44.062;2.986;2024-03-08T09:25:49;2.05;;;0.80;;
75928;SDS011;64606;44.062;2.986;2024-03-08T09:28:15;1.85;;;0.73;;
75928;SDS011;64606;44.062;2.986;2024-03-08T09:30:41;1.92;;;0.70;;
75928;SDS011;64606;44.062;2.986;2024-03-08T09:33:08;1.77;;;0.60;;
75928;SDS011;64606;44.062;2.986;2024-03-08T09:35:34;1.35;;;0.90;;
75928;SDS011;64606;44.062;2.986;2024-03-08T09:38:01;1.48;;;0.70;;
75928;SDS011;64606;44.062;2.986;2024-03-08T09:40:28;1.10;;;0.68;;
75928;SDS011;64606;44.062;2.986;2024-03-08T09:42:54;0.90;;;0.70;;
75928;SDS011;64606;44.062;2.986;2024-03-08T09:45:22;0.90;;;0.70;;
75928;SDS011;64606;44.062;2.986;2024-03-08T09:47:49;1.05;;;0.80;;
75928;SDS011;64606;44.062;2.986;2024-03-08T09:50:16;0.70;;;0.70;;
75928;SDS011;64606;44.062;2.986;2024-03-08T09:52:43;1.40;;;0.70;;
75928;SDS011;64606;44.062;2.986;2024-03-08T09:55:12;1.98;;;0.73;;
75928;SDS011;64606;44.062;2.986;2024-03-08T09:57:39;1.30;;;0.65;;
75928;SDS011;64606;44.062;2.986;2024-03-08T10:00:06;1.30;;;0.60;;
75928;SDS011;64606;44.062;2.986;2024-03-08T10:02:49;0.65;;;0.50;;
75928;SDS011;64606;44.062;2.986;2024-03-08T10:05:19;1.33;;;0.93;;
75928;SDS011;64606;44.062;2.986;2024-03-08T10:07:47;1.42;;;0.70;;
75928;SDS011;64606;44.062;2.986;2024-03-08T10:10:13;0.98;;;0.63;;
75928;SDS011;64606;44.062;2.986;2024-03-08T10:12:39;1.48;;;0.80;;
75928;SDS011;64606;44.062;2.986;2024-03-08T10:15:07;0.52;;;0.52;;
75928;SDS011;64606;44.062;2.986;2024-03-08T10:17:36;1.40;;;0.57;;
75928;SDS011;64606;44.062;2.986;2024-03-08T10:20:02;0.95;;;0.65;;
75928;SDS011;64606;44.062;2.986;2024-03-08T10:22:40;1.13;;;0.60;;
75928;SDS011;64606;44.062;2.986;2024-03-08T10:25:08;0.70;;;0.50;;
75928;SDS011;64606;44.062;2.986;2024-03-08T10:27:36;0.73;;;0.60;;
75928;SDS011;64606;44.062;2.986;2024-03-08T10:30:02;0.47;;;0.40;;
75928;SDS011;64606;44.062;2.986;2024-03-08T10:32:28;0.75;;;0.60;;
75928;SDS011;64606;44.062;2.986;2024-03-08T10:34:55;1.75;;;0.50;;
75928;SDS011;64606;44.062;2.986;2024-03-08T10:37:21;1.00;;;0.60;;
75928;SDS011;64606;44.062;2.986;2024-03-08T10:40:07;1.13;;;0.60;;
75928;SDS011;64606;44.062;2.986;2024-03-08T10:42:57;2.15;;;0.60;;
75928;SDS011;64606;44.062;2.986;2024-03-08T10:47:54;1.80;;;0.80;;
75928;SDS011;64606;44.062;2.986;2024-03-08T10:50:25;4.78;;;1.00;;
75928;SDS011;64606;44.062;2.986;2024-03-08T10:52:52;1.58;;;0.68;;
75928;SDS011;64606;44.062;2.986;2024-03-08T10:55:19;3.85;;;0.65;;
75928;SDS011;64606;44.062;2.986;2024-03-08T10:57:48;3.30;;;0.70;;
75928;SDS011;64606;44.062;2.986;2024-03-08T11:00:14;1.48;;;0.85;;
75928;SDS011;64606;44.062;2.986;2024-03-08T11:02:44;2.92;;;1.10;;
75928;SDS011;64606;44.062;2.986;2024-03-08T11:05:14;2.83;;;1.17;;
75928;SDS011;64606;44.062;2.986;2024-03-08T11:07:47;4.80;;;1.35;;
75928;SDS011;64606;44.062;2.986;2024-03-08T11:10:19;4.72;;;1.80;;
75928;SDS011;64606;44.062;2.986;2024-03-08T11:12:46;5.22;;;2.10;;
75928;SDS011;64606;44.062;2.986;2024-03-08T11:15:13;9.95;;;2.08;;
75928;SDS011;64606;44.062;2.986;2024-03-08T11:20:19;6.85;;;2.28;;
75928;SDS011;64606;44.062;2.986;2024-03-08T11:22:55;5.25;;;2.00;;
75928;SDS011;64606;44.062;2.986;2024-03-08T11:25:35;5.20;;;2.35;;
75928;SDS011;64606;44.062;2.986;2024-03-08T11:28:08;5.50;;;2.45;;
75928;SDS011;64606;44.062;2.986;2024-03-08T11:30:34;7.35;;;2.65;;
75928;SDS011;64606;44.062;2.986;2024-03-08T11:33:01;7.05;;;2.90;;
75928;SDS011;64606;44.062;2.986;2024-03-08T11:35:28;7.30;;;2.92;;
75928;SDS011;64606;44.062;2.986;2024-03-08T11:37:57;8.00;;;2.65;;
75928;SDS011;64606;44.062;2.986;2024-03-08T11:40:25;7.95;;;2.78;;
75928;SDS011;64606;44.062;2.986;2024-03-08T11:42:52;6.82;;;2.50;;
75928;SDS011;64606;44.062;2.986;2024-03-08T11:45:22;4.25;;;2.20;;
75928;SDS011;64606;44.062;2.986;2024-03-08T11:47:50;5.57;;;2.60;;
75928;SDS011;64606;44.062;2.986;2024-03-08T11:50:17;6.85;;;2.50;;
75928;SDS011;64606;44.062;2.986;2024-03-08T11:52:46;5.28;;;2.40;;
75928;SDS011;64606;44.062;2.986;2024-03-08T11:55:14;7.65;;;2.70;;
75928;SDS011;64606;44.062;2.986;2024-03-08T11:57:41;3.72;;;2.20;;
75928;SDS011;64606;44.062;2.986;2024-03-08T12:00:14;5.05;;;2.20;;
75928;SDS011;64606;44.062;2.986;2024-03-08T12:02:47;4.68;;;1.85;;
75928;SDS011;64606;44.062;2.986;2024-03-08T12:05:26;3.65;;;1.90;;
75928;SDS011;64606;44.062;2.986;2024-03-08T12:07:56;8.10;;;2.35;;
75928;SDS011;64606;44.062;2.986;2024-03-08T12:10:22;3.13;;;1.63;;
75928;SDS011;64606;44.062;2.986;2024-03-08T12:12:51;3.58;;;1.70;;
75928;SDS011;64606;44.062;2.986;2024-03-08T12:15:22;4.13;;;2.00;;
75928;SDS011;64606;44.062;2.986;2024-03-08T12:17:49;2.70;;;1.67;;
75928;SDS011;64606;44.062;2.986;2024-03-08T12:20:20;2.60;;;1.70;;
75928;SDS011;64606;44.062;2.986;2024-03-08T12:22:47;3.20;;;1.67;;
75928;SDS011;64606;44.062;2.986;2024-03-08T12:25:14;4.18;;;1.65;;
75928;SDS011;64606;44.062;2.986;2024-03-08T12:27:41;3.28;;;1.65;;
75928;SDS011;64606;44.062;2.986;2024-03-08T12:30:21;3.08;;;1.80;;
75928;SDS011;64606;44.062;2.986;2024-03-08T12:33:01;3.35;;;1.35;;
75928;SDS011;64606;44.062;2.986;2024-03-08T12:35:28;1.92;;;1.48;;
75928;SDS011;64606;44.062;2.986;2024-03-08T12:37:55;2.35;;;1.63;;
75928;SDS011;64606;44.062;2.986;2024-03-08T12:40:29;1.95;;;1.60;;
75928;SDS011;64606;44.062;2.986;2024-03-08T12:45:23;2.17;;;1.33;;
75928;SDS011;64606;44.062;2.986;2024-03-08T12:47:52;1.60;;;1.40;;
75928;SDS011;64606;44.062;2.986;2024-03-08T12:50:19;2.28;;;1.35;;
75928;SDS011;64606;44.062;2.986;2024-03-08T12:52:48;2.05;;;1.40;;
75928;SDS011;64606;44.062;2.986;2024-03-08T12:55:15;2.38;;;1.38;;
75928;SDS011;64606;44.062;2.986;2024-03-08T12:57:43;2.85;;;1.20;;
75928;SDS011;64606;44.062;2.986;2024-03-08T13:00:10;1.52;;;1.10;;
75928;SDS011;64606;44.062;2.986;2024-03-08T13:02:44;1.48;;;1.17;;
75928;SDS011;64606;44.062;2.986;2024-03-08T13:05:11;2.78;;;1.27;;
75928;SDS011;64606;44.062;2.986;2024-03-08T13:07:43;1.90;;;1.10;;
75928;SDS011;64606;44.062;2.986;2024-03-08T13:10:14;2.13;;;1.10;;
75928;SDS011;64606;44.062;2.986;2024-03-08T13:12:43;1.88;;;1.10;;
75928;SDS011;64606;44.062;2.986;2024-03-08T13:15:10;1.50;;;0.90;;
75928;SDS011;64606;44.062;2.986;2024-03-08T13:17:37;1.98;;;1.00;;
75928;SDS011;64606;44.062;2.986;2024-03-08T13:20:05;2.85;;;1.00;;
75928;SDS011;64606;44.062;2.986;2024-03-08T13:22:32;1.13;;;0.90;;
75928;SDS011;64606;44.062;2.986;2024-03-08T13:24:59;2.88;;;1.10;;
75928;SDS011;64606;44.062;2.986;2024-03-08T13:27:30;1.60;;;0.88;;
75928;SDS011;64606;44.062;2.986;2024-03-08T13:29:56;1.25;;;1.08;;
75928;SDS011;64606;44.062;2.986;2024-03-08T13:32:23;1.27;;;0.90;;
75928;SDS011;64606;44.062;2.986;2024-03-08T13:34:50;1.45;;;1.00;;
75928;SDS011;64606;44.062;2.986;2024-03-08T13:37:17;3.50;;;1.02;;
75928;SDS011;64606;44.062;2.986;2024-03-08T13:39:43;2.47;;;0.80;;
75928;SDS011;64606;44.062;2.986;2024-03-08T13:42:10;2.95;;;0.98;;
75928;SDS011;64606;44.062;2.986;2024-03-08T13:44:44;0.73;;;0.73;;
75928;SDS011;64606;44.062;2.986;2024-03-08T13:47:12;2.00;;;0.77;;
75928;SDS011;64606;44.062;2.986;2024-03-08T13:49:38;0.90;;;0.70;;
75928;SDS011;64606;44.062;2.986;2024-03-08T13:52:05;0.70;;;0.70;;
75928;SDS011;64606;44.062;2.986;2024-03-08T13:54:33;1.10;;;0.80;;
75928;SDS011;64606;44.062;2.986;2024-03-08T13:57:00;1.02;;;0.88;;
75928;SDS011;64606;44.062;2.986;2024-03-08T13:59:29;1.52;;;0.95;;
75928;SDS011;64606;44.062;2.986;2024-03-08T14:02:00;1.17;;;0.80;;
75928;SDS011;64606;44.062;2.986;2024-03-08T14:04:27;1.30;;;0.80;;
75928;SDS011;64606;44.062;2.986;2024-03-08T14:06:54;1.80;;;0.90;;
75928;SDS011;64606;44.062;2.986;2024-03-08T14:09:39;1.42;;;0.80;;
75928;SDS011;64606;44.062;2.986;2024-03-08T14:12:08;1.20;;;0.70;;
75928;SDS011;64606;44.062;2.986;2024-03-08T14:14:35;2.50;;;0.80;;
75928;SDS011;64606;44.062;2.986;2024-03-08T14:17:02;1.02;;;0.70;;
75928;SDS011;64606;44.062;2.986;2024-03-08T14:19:29;1.02;;;0.93;;
75928;SDS011;64606;44.062;2.986;2024-03-08T14:22:04;1.58;;;0.60;;
75928;SDS011;64606;44.062;2.986;2024-03-08T14:24:32;3.25;;;1.00;;
75928;SDS011;64606;44.062;2.986;2024-03-08T14:27:00;1.13;;;0.80;;
75928;SDS011;64606;44.062;2.986;2024-03-08T14:29:28;1.05;;;0.80;;
75928;SDS011;64606;44.062;2.986;2024-03-08T14:31:57;1.63;;;1.17;;
75928;SDS011;64606;44.062;2.986;2024-03-08T14:34:24;1.98;;;0.90;;
75928;SDS011;64606;44.062;2.986;2024-03-08T14:36:55;1.13;;;0.70;;
75928;SDS011;64606;44.062;2.986;2024-03-08T14:39:22;1.02;;;0.80;;
75928;SDS011;64606;44.062;2.986;2024-03-08T14:41:55;1.63;;;0.75;;
75928;SDS011;64606;44.062;2.986;2024-03-08T14:44:23;2.47;;;0.98;;
75928;SDS011;64606;44.062;2.986;2024-03-08T14:46:54;2.33;;;1.00;;
75928;SDS011;64606;44.062;2.986;2024-03-08T14:49:24;1.30;;;0.70;;
75928;SDS011;64606;44.062;2.986;2024-03-08T14:51:55;0.95;;;0.75;;
75928;SDS011;64606;44.062;2.986;2024-03-08T14:54:23;0.75;;;0.73;;
75928;SDS011;64606;44.062;2.986;2024-03-08T14:56:51;0.95;;;0.70;;
75928;SDS011;64606;44.062;2.986;2024-03-08T14:59:18;1.20;;;0.80;;
75928;SDS011;64606;44.062;2.986;2024-03-08T15:01:45;2.22;;;0.98;;